Levittown, New York
Current Conditions -  °F | °C
As of 11:53 PM on Wednesday 22 Oct 2014 (Local Time) from KFRG Reporting Station
Overcast Overcast  
Wind Chill: 52°   Ceiling: 1800
Heat Index: 52°   Visibility: 10mi
Dew Point: 47°   Wind: 22mph
Humidity: 83%   Direction: 20°NNE
Pressure: 29.69"   Gusts: 36mph
Location:  40.73°N, 73.51°W
Report Text: KFRG 230353Z AUTO 02019G31KT 10SM BKN018 OVC025 11/08 A2969 RMK AO2 PK WND 02034/0315 RAE08 SLP055 P0000 T01110083
Loading
Personal Weather Stations






























Interactive Weather Map
Tropical Storm Tracking
New forecast layout! Learn more

10-Day Weather Forecast

Advertisements
Track Severe Weather on mobile